sensor_id;sensor_type;location;lat;lon;timestamp;P1;durP1;ratioP1;P2;durP2;ratioP2
11247;SDS011;5681;53.316;13.950;2023-08-06T00:01:13;7.78;;;3.40;;
11247;SDS011;5681;53.316;13.950;2023-08-06T00:03:40;6.45;;;3.70;;
11247;SDS011;5681;53.316;13.950;2023-08-06T00:06:06;7.38;;;3.75;;
11247;SDS011;5681;53.316;13.950;2023-08-06T00:08:32;6.20;;;3.63;;
11247;SDS011;5681;53.316;13.950;2023-08-06T00:11:00;7.55;;;3.63;;
11247;SDS011;5681;53.316;13.950;2023-08-06T00:13:26;7.95;;;3.85;;
11247;SDS011;5681;53.316;13.950;2023-08-06T00:15:53;6.68;;;3.78;;
11247;SDS011;5681;53.316;13.950;2023-08-06T00:18:19;12.85;;;4.75;;
11247;SDS011;5681;53.316;13.950;2023-08-06T00:20:45;10.15;;;4.40;;
11247;SDS011;5681;53.316;13.950;2023-08-06T00:23:12;7.70;;;4.22;;
11247;SDS011;5681;53.316;13.950;2023-08-06T00:25:38;5.95;;;4.20;;
11247;SDS011;5681;53.316;13.950;2023-08-06T00:28:06;6.78;;;4.45;;
11247;SDS011;5681;53.316;13.950;2023-08-06T00:30:32;12.70;;;5.13;;
11247;SDS011;5681;53.316;13.950;2023-08-06T00:32:58;9.60;;;4.75;;
11247;SDS011;5681;53.316;13.950;2023-08-06T00:35:24;11.15;;;5.00;;
11247;SDS011;5681;53.316;13.950;2023-08-06T00:37:51;14.20;;;5.10;;
11247;SDS011;5681;53.316;13.950;2023-08-06T00:40:19;8.60;;;4.78;;
11247;SDS011;5681;53.316;13.950;2023-08-06T00:42:46;11.43;;;4.90;;
11247;SDS011;5681;53.316;13.950;2023-08-06T00:45:14;7.70;;;4.90;;
11247;SDS011;5681;53.316;13.950;2023-08-06T00:47:40;10.30;;;5.97;;
11247;SDS011;5681;53.316;13.950;2023-08-06T00:50:07;9.13;;;5.32;;
11247;SDS011;5681;53.316;13.950;2023-08-06T00:52:34;7.43;;;5.40;;
11247;SDS011;5681;53.316;13.950;2023-08-06T00:55:01;10.38;;;5.93;;
11247;SDS011;5681;53.316;13.950;2023-08-06T00:57:28;11.80;;;5.20;;
11247;SDS011;5681;53.316;13.950;2023-08-06T00:59:54;8.02;;;5.05;;
11247;SDS011;5681;53.316;13.950;2023-08-06T01:02:22;8.48;;;5.13;;
11247;SDS011;5681;53.316;13.950;2023-08-06T01:04:48;8.15;;;5.15;;
11247;SDS011;5681;53.316;13.950;2023-08-06T01:07:18;9.95;;;5.20;;
11247;SDS011;5681;53.316;13.950;2023-08-06T01:09:50;10.70;;;5.18;;
11247;SDS011;5681;53.316;13.950;2023-08-06T01:12:22;6.22;;;4.20;;
11247;SDS011;5681;53.316;13.950;2023-08-06T01:14:53;7.05;;;4.38;;
11247;SDS011;5681;53.316;13.950;2023-08-06T01:17:26;7.15;;;4.43;;
11247;SDS011;5681;53.316;13.950;2023-08-06T01:19:52;6.68;;;4.32;;
11247;SDS011;5681;53.316;13.950;2023-08-06T01:22:20;6.35;;;4.18;;
11247;SDS011;5681;53.316;13.950;2023-08-06T01:24:47;6.32;;;3.80;;
11247;SDS011;5681;53.316;13.950;2023-08-06T01:27:17;9.73;;;4.00;;
11247;SDS011;5681;53.316;13.950;2023-08-06T01:29:48;8.27;;;3.85;;
11247;SDS011;5681;53.316;13.950;2023-08-06T01:32:18;8.07;;;4.15;;
11247;SDS011;5681;53.316;13.950;2023-08-06T01:34:46;5.80;;;3.60;;
11247;SDS011;5681;53.316;13.950;2023-08-06T01:37:13;9.18;;;4.22;;
11247;SDS011;5681;53.316;13.950;2023-08-06T01:39:41;7.32;;;4.50;;
11247;SDS011;5681;53.316;13.950;2023-08-06T01:42:08;8.90;;;4.30;;
11247;SDS011;5681;53.316;13.950;2023-08-06T01:44:35;7.18;;;4.72;;
11247;SDS011;5681;53.316;13.950;2023-08-06T01:47:01;6.78;;;4.15;;
11247;SDS011;5681;53.316;13.950;2023-08-06T01:49:27;7.95;;;5.32;;
11247;SDS011;5681;53.316;13.950;2023-08-06T01:51:54;9.95;;;5.70;;
11247;SDS011;5681;53.316;13.950;2023-08-06T01:54:20;9.63;;;5.45;;
11247;SDS011;5681;53.316;13.950;2023-08-06T01:56:49;8.40;;;5.82;;
11247;SDS011;5681;53.316;13.950;2023-08-06T01:59:15;8.63;;;6.20;;
11247;SDS011;5681;53.316;13.950;2023-08-06T02:01:41;10.52;;;6.07;;
11247;SDS011;5681;53.316;13.950;2023-08-06T02:04:08;12.32;;;6.32;;
11247;SDS011;5681;53.316;13.950;2023-08-06T02:06:34;14.55;;;6.00;;
11247;SDS011;5681;53.316;13.950;2023-08-06T02:09:00;12.63;;;7.35;;
11247;SDS011;5681;53.316;13.950;2023-08-06T02:11:27;13.85;;;7.68;;
11247;SDS011;5681;53.316;13.950;2023-08-06T02:13:54;13.02;;;7.82;;
11247;SDS011;5681;53.316;13.950;2023-08-06T02:16:21;13.93;;;8.85;;
11247;SDS011;5681;53.316;13.950;2023-08-06T02:18:47;15.23;;;8.25;;
11247;SDS011;5681;53.316;13.950;2023-08-06T02:21:13;17.02;;;10.32;;
11247;SDS011;5681;53.316;13.950;2023-08-06T02:23:40;20.30;;;11.23;;
11247;SDS011;5681;53.316;13.950;2023-08-06T02:26:06;21.77;;;10.93;;
11247;SDS011;5681;53.316;13.950;2023-08-06T02:28:32;20.13;;;11.27;;
11247;SDS011;5681;53.316;13.950;2023-08-06T02:31:00;18.45;;;11.60;;
11247;SDS011;5681;53.316;13.950;2023-08-06T02:33:26;19.55;;;10.80;;
11247;SDS011;5681;53.316;13.950;2023-08-06T02:35:58;21.63;;;11.27;;
11247;SDS011;5681;53.316;13.950;2023-08-06T02:38:25;21.50;;;11.45;;
11247;SDS011;5681;53.316;13.950;2023-08-06T02:40:51;19.80;;;11.10;;
11247;SDS011;5681;53.316;13.950;2023-08-06T02:43:17;17.65;;;10.68;;
11247;SDS011;5681;53.316;13.950;2023-08-06T02:45:44;19.30;;;10.20;;
11247;SDS011;5681;53.316;13.950;2023-08-06T02:48:11;20.90;;;11.35;;
11247;SDS011;5681;53.316;13.950;2023-08-06T02:50:39;22.15;;;11.05;;
11247;SDS011;5681;53.316;13.950;2023-08-06T02:53:05;22.98;;;11.65;;
11247;SDS011;5681;53.316;13.950;2023-08-06T02:55:32;23.40;;;11.98;;
11247;SDS011;5681;53.316;13.950;2023-08-06T02:57:59;25.38;;;13.02;;
11247;SDS011;5681;53.316;13.950;2023-08-06T03:00:25;28.35;;;13.55;;
11247;SDS011;5681;53.316;13.950;2023-08-06T03:02:51;24.02;;;13.00;;
11247;SDS011;5681;53.316;13.950;2023-08-06T03:05:20;21.48;;;12.32;;
11247;SDS011;5681;53.316;13.950;2023-08-06T03:07:46;21.55;;;11.95;;
11247;SDS011;5681;53.316;13.950;2023-08-06T03:10:12;24.60;;;13.38;;
11247;SDS011;5681;53.316;13.950;2023-08-06T03:12:39;23.48;;;13.05;;
11247;SDS011;5681;53.316;13.950;2023-08-06T03:15:05;23.10;;;12.93;;
11247;SDS011;5681;53.316;13.950;2023-08-06T03:17:32;29.42;;;13.93;;
11247;SDS011;5681;53.316;13.950;2023-08-06T03:19:59;30.02;;;13.57;;
11247;SDS011;5681;53.316;13.950;2023-08-06T03:22:26;27.88;;;14.13;;
11247;SDS011;5681;53.316;13.950;2023-08-06T03:24:53;23.90;;;13.52;;
11247;SDS011;5681;53.316;13.950;2023-08-06T03:27:19;26.30;;;13.80;;
11247;SDS011;5681;53.316;13.950;2023-08-06T03:29:48;29.85;;;14.13;;
11247;SDS011;5681;53.316;13.950;2023-08-06T03:32:14;25.95;;;13.27;;
11247;SDS011;5681;53.316;13.950;2023-08-06T03:34:41;27.88;;;13.75;;
11247;SDS011;5681;53.316;13.950;2023-08-06T03:37:07;27.80;;;12.73;;
11247;SDS011;5681;53.316;13.950;2023-08-06T03:39:35;30.10;;;13.85;;
11247;SDS011;5681;53.316;13.950;2023-08-06T03:42:01;30.85;;;14.05;;
11247;SDS011;5681;53.316;13.950;2023-08-06T03:44:27;23.85;;;13.05;;
11247;SDS011;5681;53.316;13.950;2023-08-06T03:46:54;32.83;;;13.43;;
11247;SDS011;5681;53.316;13.950;2023-08-06T03:49:20;27.50;;;13.20;;
11247;SDS011;5681;53.316;13.950;2023-08-06T03:51:46;23.70;;;12.93;;
11247;SDS011;5681;53.316;13.950;2023-08-06T03:54:13;25.95;;;12.63;;
11247;SDS011;5681;53.316;13.950;2023-08-06T03:56:40;24.48;;;12.60;;
11247;SDS011;5681;53.316;13.950;2023-08-06T03:59:07;24.45;;;12.52;;
11247;SDS011;5681;53.316;13.950;2023-08-06T04:01:33;23.48;;;12.30;;
11247;SDS011;5681;53.316;13.950;2023-08-06T04:03:59;19.92;;;12.05;;
11247;SDS011;5681;53.316;13.950;2023-08-06T04:06:26;21.20;;;11.65;;
11247;SDS011;5681;53.316;13.950;2023-08-06T04:08:52;21.95;;;11.80;;
11247;SDS011;5681;53.316;13.950;2023-08-06T04:11:18;23.95;;;12.98;;
11247;SDS011;5681;53.316;13.950;2023-08-06T04:13:46;24.77;;;12.40;;
11247;SDS011;5681;53.316;13.950;2023-08-06T04:16:12;20.73;;;11.68;;
11247;SDS011;5681;53.316;13.950;2023-08-06T04:18:39;25.38;;;11.65;;
11247;SDS011;5681;53.316;13.950;2023-08-06T04:21:06;21.95;;;11.70;;
11247;SDS011;5681;53.316;13.950;2023-08-06T04:23:33;23.05;;;11.88;;
11247;SDS011;5681;53.316;13.950;2023-08-06T04:25:59;21.75;;;11.00;;
11247;SDS011;5681;53.316;13.950;2023-08-06T04:28:25;19.75;;;11.50;;
11247;SDS011;5681;53.316;13.950;2023-08-06T04:30:53;18.70;;;11.60;;
11247;SDS011;5681;53.316;13.950;2023-08-06T04:33:19;20.80;;;11.10;;
11247;SDS011;5681;53.316;13.950;2023-08-06T04:35:46;22.38;;;11.70;;
11247;SDS011;5681;53.316;13.950;2023-08-06T04:38:12;18.67;;;11.63;;
11247;SDS011;5681;53.316;13.950;2023-08-06T04:40:38;19.33;;;11.48;;
11247;SDS011;5681;53.316;13.950;2023-08-06T04:43:05;20.38;;;10.50;;
11247;SDS011;5681;53.316;13.950;2023-08-06T04:45:31;18.45;;;10.25;;
11247;SDS011;5681;53.316;13.950;2023-08-06T04:47:59;18.45;;;11.10;;
11247;SDS011;5681;53.316;13.950;2023-08-06T04:50:25;16.85;;;10.45;;
11247;SDS011;5681;53.316;13.950;2023-08-06T04:52:51;16.80;;;10.45;;
11247;SDS011;5681;53.316;13.950;2023-08-06T04:55:18;15.13;;;9.77;;
11247;SDS011;5681;53.316;13.950;2023-08-06T04:57:44;16.38;;;9.75;;
11247;SDS011;5681;53.316;13.950;2023-08-06T05:00:11;12.57;;;8.85;;
11247;SDS011;5681;53.316;13.950;2023-08-06T05:02:37;15.43;;;9.75;;
11247;SDS011;5681;53.316;13.950;2023-08-06T05:05:05;16.30;;;9.77;;
11247;SDS011;5681;53.316;13.950;2023-08-06T05:07:32;15.95;;;10.15;;
11247;SDS011;5681;53.316;13.950;2023-08-06T05:09:58;16.80;;;9.98;;
11247;SDS011;5681;53.316;13.950;2023-08-06T05:12:25;15.52;;;9.15;;
11247;SDS011;5681;53.316;13.950;2023-08-06T05:14:51;15.45;;;9.27;;
11247;SDS011;5681;53.316;13.950;2023-08-06T05:17:17;16.40;;;8.93;;
11247;SDS011;5681;53.316;13.950;2023-08-06T05:19:44;23.55;;;9.75;;
11247;SDS011;5681;53.316;13.950;2023-08-06T05:22:11;16.63;;;9.48;;
11247;SDS011;5681;53.316;13.950;2023-08-06T05:24:38;16.33;;;9.60;;
11247;SDS011;5681;53.316;13.950;2023-08-06T05:27:04;16.45;;;8.98;;
11247;SDS011;5681;53.316;13.950;2023-08-06T05:29:31;17.40;;;9.68;;
11247;SDS011;5681;53.316;13.950;2023-08-06T05:31:57;14.27;;;8.55;;
11247;SDS011;5681;53.316;13.950;2023-08-06T05:34:24;16.58;;;9.18;;
11247;SDS011;5681;53.316;13.950;2023-08-06T05:36:50;16.48;;;9.65;;
11247;SDS011;5681;53.316;13.950;2023-08-06T05:39:19;15.98;;;10.13;;
11247;SDS011;5681;53.316;13.950;2023-08-06T05:41:45;16.95;;;9.45;;
11247;SDS011;5681;53.316;13.950;2023-08-06T05:44:11;14.57;;;9.07;;
11247;SDS011;5681;53.316;13.950;2023-08-06T05:46:38;14.70;;;8.88;;
11247;SDS011;5681;53.316;13.950;2023-08-06T05:49:04;18.08;;;9.85;;
11247;SDS011;5681;53.316;13.950;2023-08-06T05:51:30;18.42;;;10.27;;
11247;SDS011;5681;53.316;13.950;2023-08-06T05:53:57;16.35;;;9.90;;
11247;SDS011;5681;53.316;13.950;2023-08-06T05:56:24;19.80;;;10.50;;
11247;SDS011;5681;53.316;13.950;2023-08-06T05:58:51;16.67;;;9.45;;
11247;SDS011;5681;53.316;13.950;2023-08-06T06:01:18;14.45;;;9.80;;
11247;SDS011;5681;53.316;13.950;2023-08-06T06:03:44;18.50;;;11.82;;
11247;SDS011;5681;53.316;13.950;2023-08-06T06:06:10;18.90;;;10.73;;
11247;SDS011;5681;53.316;13.950;2023-08-06T06:08:37;16.00;;;9.82;;
11247;SDS011;5681;53.316;13.950;2023-08-06T06:11:03;20.80;;;10.52;;
11247;SDS011;5681;53.316;13.950;2023-08-06T06:13:31;18.60;;;10.63;;
11247;SDS011;5681;53.316;13.950;2023-08-06T06:15:57;14.18;;;9.60;;
11247;SDS011;5681;53.316;13.950;2023-08-06T06:18:23;16.85;;;10.05;;
11247;SDS011;5681;53.316;13.950;2023-08-06T06:20:50;15.57;;;10.50;;
11247;SDS011;5681;53.316;13.950;2023-08-06T06:23:16;18.50;;;11.18;;
11247;SDS011;5681;53.316;13.950;2023-08-06T06:25:43;16.52;;;10.75;;
11247;SDS011;5681;53.316;13.950;2023-08-06T06:28:09;15.23;;;10.32;;
11247;SDS011;5681;53.316;13.950;2023-08-06T06:30:37;17.60;;;11.38;;
11247;SDS011;5681;53.316;13.950;2023-08-06T06:33:03;15.98;;;10.77;;
11247;SDS011;5681;53.316;13.950;2023-08-06T06:35:29;15.25;;;9.88;;
11247;SDS011;5681;53.316;13.950;2023-08-06T06:37:56;13.73;;;9.23;;
11247;SDS011;5681;53.316;13.950;2023-08-06T06:40:22;14.95;;;10.57;;
11247;SDS011;5681;53.316;13.950;2023-08-06T06:42:48;15.20;;;9.68;;
11247;SDS011;5681;53.316;13.950;2023-08-06T06:45:15;17.83;;;11.10;;
11247;SDS011;5681;53.316;13.950;2023-08-06T06:47:43;13.98;;;10.07;;
11247;SDS011;5681;53.316;13.950;2023-08-06T06:50:09;15.88;;;12.20;;
11247;SDS011;5681;53.316;13.950;2023-08-06T06:52:36;20.75;;;10.75;;
11247;SDS011;5681;53.316;13.950;2023-08-06T06:55:03;14.50;;;11.20;;
11247;SDS011;5681;53.316;13.950;2023-08-06T06:57:29;12.05;;;10.35;;
11247;SDS011;5681;53.316;13.950;2023-08-06T06:59:56;15.88;;;11.43;;
11247;SDS011;5681;53.316;13.950;2023-08-06T07:02:22;12.82;;;10.77;;
11247;SDS011;5681;53.316;13.950;2023-08-06T07:04:50;14.55;;;11.48;;
11247;SDS011;5681;53.316;13.950;2023-08-06T07:07:17;13.45;;;11.15;;
11247;SDS011;5681;53.316;13.950;2023-08-06T07:09:43;14.45;;;11.48;;
11247;SDS011;5681;53.316;13.950;2023-08-06T07:12:10;14.63;;;11.30;;
11247;SDS011;5681;53.316;13.950;2023-08-06T07:14:36;18.00;;;11.90;;
11247;SDS011;5681;53.316;13.950;2023-08-06T07:17:04;15.70;;;11.52;;
11247;SDS011;5681;53.316;13.950;2023-08-06T07:19:31;15.80;;;11.35;;
11247;SDS011;5681;53.316;13.950;2023-08-06T07:21:58;16.15;;;10.93;;
11247;SDS011;5681;53.316;13.950;2023-08-06T07:24:24;15.50;;;10.50;;
11247;SDS011;5681;53.316;13.950;2023-08-06T07:26:51;16.35;;;10.07;;
11247;SDS011;5681;53.316;13.950;2023-08-06T07:29:18;15.27;;;10.18;;
11247;SDS011;5681;53.316;13.950;2023-08-06T07:31:46;14.48;;;9.93;;
11247;SDS011;5681;53.316;13.950;2023-08-06T07:34:13;11.85;;;9.50;;
11247;SDS011;5681;53.316;13.950;2023-08-06T07:36:39;13.30;;;10.38;;
11247;SDS011;5681;53.316;13.950;2023-08-06T07:39:07;10.90;;;9.70;;
11247;SDS011;5681;53.316;13.950;2023-08-06T07:41:33;13.55;;;10.02;;
11247;SDS011;5681;53.316;13.950;2023-08-06T07:44:01;12.60;;;8.98;;
11247;SDS011;5681;53.316;13.950;2023-08-06T07:46:27;14.02;;;9.65;;
11247;SDS011;5681;53.316;13.950;2023-08-06T07:48:53;12.88;;;9.98;;
11247;SDS011;5681;53.316;13.950;2023-08-06T07:51:20;12.93;;;9.18;;
11247;SDS011;5681;53.316;13.950;2023-08-06T07:53:46;13.98;;;8.93;;
11247;SDS011;5681;53.316;13.950;2023-08-06T07:56:14;12.55;;;9.57;;
11247;SDS011;5681;53.316;13.950;2023-08-06T07:58:40;14.20;;;10.35;;
11247;SDS011;5681;53.316;13.950;2023-08-06T08:01:06;13.13;;;10.40;;
11247;SDS011;5681;53.316;13.950;2023-08-06T08:03:33;12.57;;;9.93;;
11247;SDS011;5681;53.316;13.950;2023-08-06T08:05:59;11.05;;;9.70;;
11247;SDS011;5681;53.316;13.950;2023-08-06T08:08:25;13.80;;;9.48;;
11247;SDS011;5681;53.316;13.950;2023-08-06T08:10:52;11.82;;;9.20;;
11247;SDS011;5681;53.316;13.950;2023-08-06T08:13:21;10.10;;;8.65;;
11247;SDS011;5681;53.316;13.950;2023-08-06T08:15:47;13.88;;;9.55;;
11247;SDS011;5681;53.316;13.950;2023-08-06T08:18:14;9.93;;;8.10;;
11247;SDS011;5681;53.316;13.950;2023-08-06T08:20:40;11.30;;;8.82;;
11247;SDS011;5681;53.316;13.950;2023-08-06T08:23:06;12.55;;;8.95;;
11247;SDS011;5681;53.316;13.950;2023-08-06T08:25:33;10.27;;;7.55;;
11247;SDS011;5681;53.316;13.950;2023-08-06T08:27:59;11.05;;;7.70;;
11247;SDS011;5681;53.316;13.950;2023-08-06T08:30:27;9.98;;;7.32;;
11247;SDS011;5681;53.316;13.950;2023-08-06T08:32:53;11.25;;;7.60;;
11247;SDS011;5681;53.316;13.950;2023-08-06T08:35:19;8.52;;;7.07;;
11247;SDS011;5681;53.316;13.950;2023-08-06T08:37:46;8.95;;;7.68;;
11247;SDS011;5681;53.316;13.950;2023-08-06T08:40:13;10.38;;;7.40;;
11247;SDS011;5681;53.316;13.950;2023-08-06T08:42:40;8.63;;;6.50;;
11247;SDS011;5681;53.316;13.950;2023-08-06T08:45:07;8.95;;;6.80;;
11247;SDS011;5681;53.316;13.950;2023-08-06T08:47:40;9.00;;;6.72;;
11247;SDS011;5681;53.316;13.950;2023-08-06T08:50:06;8.82;;;7.00;;
11247;SDS011;5681;53.316;13.950;2023-08-06T08:52:34;9.93;;;6.68;;
11247;SDS011;5681;53.316;13.950;2023-08-06T08:55:02;11.40;;;6.60;;
11247;SDS011;5681;53.316;13.950;2023-08-06T08:57:28;12.38;;;7.03;;
11247;SDS011;5681;53.316;13.950;2023-08-06T08:59:54;7.47;;;6.65;;
11247;SDS011;5681;53.316;13.950;2023-08-06T09:02:21;9.32;;;5.93;;
11247;SDS011;5681;53.316;13.950;2023-08-06T09:04:48;8.77;;;5.45;;
11247;SDS011;5681;53.316;13.950;2023-08-06T09:07:16;7.13;;;5.70;;
11247;SDS011;5681;53.316;13.950;2023-08-06T09:09:44;6.75;;;5.40;;
11247;SDS011;5681;53.316;13.950;2023-08-06T09:12:14;7.13;;;5.22;;
11247;SDS011;5681;53.316;13.950;2023-08-06T09:14:41;5.20;;;4.70;;
11247;SDS011;5681;53.316;13.950;2023-08-06T09:17:07;5.72;;;4.95;;
11247;SDS011;5681;53.316;13.950;2023-08-06T09:19:35;6.28;;;5.55;;
11247;SDS011;5681;53.316;13.950;2023-08-06T09:22:03;8.32;;;5.18;;
11247;SDS011;5681;53.316;13.950;2023-08-06T09:24:38;7.72;;;5.03;;
11247;SDS011;5681;53.316;13.950;2023-08-06T09:27:04;5.82;;;4.72;;
11247;SDS011;5681;53.316;13.950;2023-08-06T09:29:31;8.50;;;4.13;;
11247;SDS011;5681;53.316;13.950;2023-08-06T09:31:57;4.82;;;4.20;;
11247;SDS011;5681;53.316;13.950;2023-08-06T09:34:24;9.63;;;3.88;;
11247;SDS011;5681;53.316;13.950;2023-08-06T09:36:51;3.70;;;3.40;;
11247;SDS011;5681;53.316;13.950;2023-08-06T09:39:20;4.43;;;3.38;;
11247;SDS011;5681;53.316;13.950;2023-08-06T09:41:47;5.78;;;3.83;;
11247;SDS011;5681;53.316;13.950;2023-08-06T09:44:17;4.47;;;3.20;;
11247;SDS011;5681;53.316;13.950;2023-08-06T09:46:48;4.50;;;3.35;;
11247;SDS011;5681;53.316;13.950;2023-08-06T09:49:14;6.22;;;3.30;;
11247;SDS011;5681;53.316;13.950;2023-08-06T09:51:41;3.55;;;2.58;;
11247;SDS011;5681;53.316;13.950;2023-08-06T09:54:09;3.97;;;2.47;;
11247;SDS011;5681;53.316;13.950;2023-08-06T09:56:38;2.40;;;2.20;;
11247;SDS011;5681;53.316;13.950;2023-08-06T09:59:05;2.67;;;2.47;;
11247;SDS011;5681;53.316;13.950;2023-08-06T10:01:31;3.28;;;2.70;;
11247;SDS011;5681;53.316;13.950;2023-08-06T10:03:58;4.70;;;3.55;;
11247;SDS011;5681;53.316;13.950;2023-08-06T10:06:25;4.28;;;3.88;;
11247;SDS011;5681;53.316;13.950;2023-08-06T10:08:52;3.38;;;3.08;;
11247;SDS011;5681;53.316;13.950;2023-08-06T10:11:18;3.22;;;2.88;;
11247;SDS011;5681;53.316;13.950;2023-08-06T10:13:47;5.35;;;3.05;;
11247;SDS011;5681;53.316;13.950;2023-08-06T10:16:14;4.60;;;2.90;;
11247;SDS011;5681;53.316;13.950;2023-08-06T10:18:40;4.75;;;2.70;;
11247;SDS011;5681;53.316;13.950;2023-08-06T10:21:07;3.10;;;2.83;;
11247;SDS011;5681;53.316;13.950;2023-08-06T10:23:35;4.18;;;3.10;;
11247;SDS011;5681;53.316;13.950;2023-08-06T10:26:03;3.33;;;3.03;;
11247;SDS011;5681;53.316;13.950;2023-08-06T10:28:36;3.22;;;2.90;;
11247;SDS011;5681;53.316;13.950;2023-08-06T10:31:04;4.60;;;2.60;;
11247;SDS011;5681;53.316;13.950;2023-08-06T10:33:41;3.40;;;3.03;;
11247;SDS011;5681;53.316;13.950;2023-08-06T10:36:09;3.35;;;3.03;;
11247;SDS011;5681;53.316;13.950;2023-08-06T10:38:43;5.18;;;3.33;;
11247;SDS011;5681;53.316;13.950;2023-08-06T10:41:14;3.50;;;3.20;;
11247;SDS011;5681;53.316;13.950;2023-08-06T10:43:42;4.97;;;3.55;;
11247;SDS011;5681;53.316;13.950;2023-08-06T10:46:11;3.63;;;3.00;;
11247;SDS011;5681;53.316;13.950;2023-08-06T10:48:47;3.83;;;2.83;;
11247;SDS011;5681;53.316;13.950;2023-08-06T10:51:13;5.75;;;2.92;;
11247;SDS011;5681;53.316;13.950;2023-08-06T10:53:41;5.95;;;2.70;;
11247;SDS011;5681;53.316;13.950;2023-08-06T10:56:12;3.15;;;2.60;;
11247;SDS011;5681;53.316;13.950;2023-08-06T10:58:39;3.13;;;2.67;;
11247;SDS011;5681;53.316;13.950;2023-08-06T11:01:05;5.68;;;2.53;;
11247;SDS011;5681;53.316;13.950;2023-08-06T11:03:33;4.10;;;2.60;;
11247;SDS011;5681;53.316;13.950;2023-08-06T11:06:00;3.20;;;2.90;;
11247;SDS011;5681;53.316;13.950;2023-08-06T11:08:33;3.28;;;2.60;;
11247;SDS011;5681;53.316;13.950;2023-08-06T11:11:07;4.45;;;3.10;;
11247;SDS011;5681;53.316;13.950;2023-08-06T11:13:34;4.20;;;2.28;;
11247;SDS011;5681;53.316;13.950;2023-08-06T11:16:00;4.25;;;2.67;;
11247;SDS011;5681;53.316;13.950;2023-08-06T11:18:26;4.10;;;2.35;;
11247;SDS011;5681;53.316;13.950;2023-08-06T11:20:54;2.50;;;2.30;;
11247;SDS011;5681;53.316;13.950;2023-08-06T11:23:20;5.35;;;2.50;;
11247;SDS011;5681;53.316;13.950;2023-08-06T11:25:47;7.45;;;2.80;;
11247;SDS011;5681;53.316;13.950;2023-08-06T11:28:13;3.90;;;2.60;;
11247;SDS011;5681;53.316;13.950;2023-08-06T11:30:39;6.63;;;3.00;;
11247;SDS011;5681;53.316;13.950;2023-08-06T11:33:06;3.78;;;2.58;;
11247;SDS011;5681;53.316;13.950;2023-08-06T11:35:34;3.65;;;2.92;;
11247;SDS011;5681;53.316;13.950;2023-08-06T11:38:02;7.57;;;4.80;;
11247;SDS011;5681;53.316;13.950;2023-08-06T11:40:29;5.72;;;4.00;;
11247;SDS011;5681;53.316;13.950;2023-08-06T11:42:55;6.32;;;3.80;;
11247;SDS011;5681;53.316;13.950;2023-08-06T11:45:22;4.63;;;4.13;;
11247;SDS011;5681;53.316;13.950;2023-08-06T11:47:49;5.32;;;3.20;;
11247;SDS011;5681;53.316;13.950;2023-08-06T11:50:21;4.85;;;2.70;;
11247;SDS011;5681;53.316;13.950;2023-08-06T11:52:48;5.93;;;2.97;;
11247;SDS011;5681;53.316;13.950;2023-08-06T11:55:22;4.32;;;2.55;;
11247;SDS011;5681;53.316;13.950;2023-08-06T11:57:49;6.63;;;2.40;;
11247;SDS011;5681;53.316;13.950;2023-08-06T12:00:15;7.43;;;2.40;;
11247;SDS011;5681;53.316;13.950;2023-08-06T12:02:43;3.70;;;2.10;;
11247;SDS011;5681;53.316;13.950;2023-08-06T12:05:11;2.55;;;2.00;;
11247;SDS011;5681;53.316;13.950;2023-08-06T12:07:38;3.88;;;2.00;;
11247;SDS011;5681;53.316;13.950;2023-08-06T12:10:05;6.50;;;2.30;;
11247;SDS011;5681;53.316;13.950;2023-08-06T12:12:33;3.63;;;2.30;;
11247;SDS011;5681;53.316;13.950;2023-08-06T12:15:00;4.20;;;2.65;;
11247;SDS011;5681;53.316;13.950;2023-08-06T12:17:26;4.43;;;2.25;;
11247;SDS011;5681;53.316;13.950;2023-08-06T12:19:53;5.68;;;2.55;;
11247;SDS011;5681;53.316;13.950;2023-08-06T12:22:19;3.63;;;2.40;;
11247;SDS011;5681;53.316;13.950;2023-08-06T12:24:46;3.30;;;2.40;;
11247;SDS011;5681;53.316;13.950;2023-08-06T12:27:13;2.67;;;2.03;;
11247;SDS011;5681;53.316;13.950;2023-08-06T12:29:41;5.90;;;2.47;;
11247;SDS011;5681;53.316;13.950;2023-08-06T12:32:08;3.58;;;2.30;;
11247;SDS011;5681;53.316;13.950;2023-08-06T12:34:35;5.95;;;2.25;;
11247;SDS011;5681;53.316;13.950;2023-08-06T12:37:01;3.47;;;1.90;;
11247;SDS011;5681;53.316;13.950;2023-08-06T12:39:28;4.43;;;1.95;;
11247;SDS011;5681;53.316;13.950;2023-08-06T12:41:54;3.95;;;2.10;;
11247;SDS011;5681;53.316;13.950;2023-08-06T12:44:22;2.97;;;2.08;;
11247;SDS011;5681;53.316;13.950;2023-08-06T12:46:50;1.75;;;1.60;;
11247;SDS011;5681;53.316;13.950;2023-08-06T12:49:16;1.75;;;1.40;;
11247;SDS011;5681;53.316;13.950;2023-08-06T12:51:43;4.43;;;1.85;;
11247;SDS011;5681;53.316;13.950;2023-08-06T12:54:09;2.63;;;1.50;;
11247;SDS011;5681;53.316;13.950;2023-08-06T12:56:35;3.05;;;1.80;;
11247;SDS011;5681;53.316;13.950;2023-08-06T12:59:02;2.08;;;1.85;;
11247;SDS011;5681;53.316;13.950;2023-08-06T13:01:28;6.47;;;1.85;;
11247;SDS011;5681;53.316;13.950;2023-08-06T13:03:57;3.22;;;2.03;;
11247;SDS011;5681;53.316;13.950;2023-08-06T13:06:24;3.65;;;1.98;;
11247;SDS011;5681;53.316;13.950;2023-08-06T13:08:50;4.57;;;2.10;;
11247;SDS011;5681;53.316;13.950;2023-08-06T13:11:16;3.33;;;2.28;;
11247;SDS011;5681;53.316;13.950;2023-08-06T13:13:44;5.22;;;2.40;;
11247;SDS011;5681;53.316;13.950;2023-08-06T13:16:10;5.82;;;2.50;;
11247;SDS011;5681;53.316;13.950;2023-08-06T13:18:36;3.55;;;2.08;;
11247;SDS011;5681;53.316;13.950;2023-08-06T13:21:04;5.65;;;2.60;;
11247;SDS011;5681;53.316;13.950;2023-08-06T13:23:31;5.25;;;2.50;;
11247;SDS011;5681;53.316;13.950;2023-08-06T13:25:57;3.83;;;2.40;;
11247;SDS011;5681;53.316;13.950;2023-08-06T13:28:23;4.22;;;2.22;;
11247;SDS011;5681;53.316;13.950;2023-08-06T13:30:50;3.72;;;2.42;;
11247;SDS011;5681;53.316;13.950;2023-08-06T13:33:16;3.33;;;2.33;;
11247;SDS011;5681;53.316;13.950;2023-08-06T13:35:43;8.30;;;2.30;;
11247;SDS011;5681;53.316;13.950;2023-08-06T13:38:10;4.15;;;2.25;;
11247;SDS011;5681;53.316;13.950;2023-08-06T13:40:37;4.53;;;2.40;;
11247;SDS011;5681;53.316;13.950;2023-08-06T13:43:03;5.05;;;2.85;;
11247;SDS011;5681;53.316;13.950;2023-08-06T13:45:29;4.78;;;2.55;;
11247;SDS011;5681;53.316;13.950;2023-08-06T13:47:59;5.13;;;2.70;;
11247;SDS011;5681;53.316;13.950;2023-08-06T13:50:25;7.22;;;2.85;;
11247;SDS011;5681;53.316;13.950;2023-08-06T13:52:52;4.35;;;2.72;;
11247;SDS011;5681;53.316;13.950;2023-08-06T13:55:21;3.83;;;2.97;;
11247;SDS011;5681;53.316;13.950;2023-08-06T13:57:48;5.57;;;3.20;;
11247;SDS011;5681;53.316;13.950;2023-08-06T14:00:15;6.80;;;3.10;;
11247;SDS011;5681;53.316;13.950;2023-08-06T14:02:41;6.88;;;3.10;;
11247;SDS011;5681;53.316;13.950;2023-08-06T14:05:08;4.82;;;2.92;;
11247;SDS011;5681;53.316;13.950;2023-08-06T14:07:35;5.53;;;2.60;;
11247;SDS011;5681;53.316;13.950;2023-08-06T14:10:01;4.38;;;2.88;;
11247;SDS011;5681;53.316;13.950;2023-08-06T14:12:29;5.97;;;2.88;;
11247;SDS011;5681;53.316;13.950;2023-08-06T14:14:55;6.30;;;3.30;;
11247;SDS011;5681;53.316;13.950;2023-08-06T14:17:22;3.70;;;2.80;;
11247;SDS011;5681;53.316;13.950;2023-08-06T14:19:48;3.63;;;2.95;;
11247;SDS011;5681;53.316;13.950;2023-08-06T14:22:15;4.47;;;2.80;;
11247;SDS011;5681;53.316;13.950;2023-08-06T14:24:41;5.10;;;3.13;;
11247;SDS011;5681;53.316;13.950;2023-08-06T14:27:07;6.50;;;3.03;;
11247;SDS011;5681;53.316;13.950;2023-08-06T14:29:35;5.95;;;3.33;;
11247;SDS011;5681;53.316;13.950;2023-08-06T14:32:01;5.75;;;3.10;;
11247;SDS011;5681;53.316;13.950;2023-08-06T14:34:28;4.70;;;3.50;;
11247;SDS011;5681;53.316;13.950;2023-08-06T14:36:54;5.05;;;3.03;;